sensor_id;sensor_type;location;lat;lon;timestamp;P1;durP1;ratioP1;P2;durP2;ratioP2
57573;SDS011;43409;48.858;21.906;2022-08-21T00:00:53;1.92;;;1.73;;
57573;SDS011;43409;48.858;21.906;2022-08-21T00:03:19;1.73;;;1.63;;
57573;SDS011;43409;48.858;21.906;2022-08-21T00:05:47;1.73;;;1.63;;
57573;SDS011;43409;48.858;21.906;2022-08-21T00:08:15;4.35;;;1.63;;
57573;SDS011;43409;48.858;21.906;2022-08-21T00:10:44;1.80;;;1.70;;
57573;SDS011;43409;48.858;21.906;2022-08-21T00:13:10;1.73;;;1.63;;
57573;SDS011;43409;48.858;21.906;2022-08-21T00:15:37;1.80;;;1.70;;
57573;SDS011;43409;48.858;21.906;2022-08-21T00:18:04;1.50;;;1.40;;
57573;SDS011;43409;48.858;21.906;2022-08-21T00:20:31;1.63;;;1.52;;
57573;SDS011;43409;48.858;21.906;2022-08-21T00:22:57;1.73;;;1.63;;
57573;SDS011;43409;48.858;21.906;2022-08-21T00:25:23;1.70;;;1.60;;
57573;SDS011;43409;48.858;21.906;2022-08-21T00:27:48;1.70;;;1.60;;
57573;SDS011;43409;48.858;21.906;2022-08-21T00:30:15;1.33;;;1.33;;
57573;SDS011;43409;48.858;21.906;2022-08-21T00:32:42;1.60;;;1.50;;
57573;SDS011;43409;48.858;21.906;2022-08-21T00:35:11;1.52;;;1.50;;
57573;SDS011;43409;48.858;21.906;2022-08-21T00:37:39;1.30;;;1.30;;
57573;SDS011;43409;48.858;21.906;2022-08-21T00:40:07;1.40;;;1.40;;
57573;SDS011;43409;48.858;21.906;2022-08-21T00:42:34;1.83;;;1.73;;
57573;SDS011;43409;48.858;21.906;2022-08-21T00:45:00;1.83;;;1.73;;
57573;SDS011;43409;48.858;21.906;2022-08-21T00:47:27;1.65;;;1.55;;
57573;SDS011;43409;48.858;21.906;2022-08-21T00:49:52;1.60;;;1.60;;
57573;SDS011;43409;48.858;21.906;2022-08-21T00:52:19;1.80;;;1.70;;
57573;SDS011;43409;48.858;21.906;2022-08-21T00:54:48;1.88;;;1.77;;
57573;SDS011;43409;48.858;21.906;2022-08-21T00:57:17;2.10;;;1.60;;
57573;SDS011;43409;48.858;21.906;2022-08-21T00:59:46;3.28;;;1.52;;
57573;SDS011;43409;48.858;21.906;2022-08-21T01:02:15;1.55;;;1.45;;
57573;SDS011;43409;48.858;21.906;2022-08-21T01:04:42;1.75;;;1.65;;
57573;SDS011;43409;48.858;21.906;2022-08-21T01:07:07;1.70;;;1.60;;
57573;SDS011;43409;48.858;21.906;2022-08-21T01:09:33;1.45;;;1.35;;
57573;SDS011;43409;48.858;21.906;2022-08-21T01:12:00;1.50;;;1.40;;
57573;SDS011;43409;48.858;21.906;2022-08-21T01:14:26;1.63;;;1.52;;
57573;SDS011;43409;48.858;21.906;2022-08-21T01:16:52;1.73;;;1.63;;
57573;SDS011;43409;48.858;21.906;2022-08-21T01:19:18;1.60;;;1.50;;
57573;SDS011;43409;48.858;21.906;2022-08-21T01:21:45;1.67;;;1.58;;
57573;SDS011;43409;48.858;21.906;2022-08-21T01:24:12;1.42;;;1.33;;
57573;SDS011;43409;48.858;21.906;2022-08-21T01:26:38;1.70;;;1.60;;
57573;SDS011;43409;48.858;21.906;2022-08-21T01:29:07;1.67;;;1.58;;
57573;SDS011;43409;48.858;21.906;2022-08-21T01:31:39;1.60;;;1.50;;
57573;SDS011;43409;48.858;21.906;2022-08-21T01:34:05;1.40;;;1.40;;
57573;SDS011;43409;48.858;21.906;2022-08-21T01:36:32;1.70;;;1.60;;
57573;SDS011;43409;48.858;21.906;2022-08-21T01:38:57;1.58;;;1.48;;
57573;SDS011;43409;48.858;21.906;2022-08-21T01:41:23;1.70;;;1.60;;
57573;SDS011;43409;48.858;21.906;2022-08-21T01:43:48;2.00;;;1.80;;
57573;SDS011;43409;48.858;21.906;2022-08-21T01:46:14;1.35;;;1.30;;
57573;SDS011;43409;48.858;21.906;2022-08-21T01:48:40;1.60;;;1.50;;
57573;SDS011;43409;48.858;21.906;2022-08-21T01:51:07;1.63;;;1.52;;
57573;SDS011;43409;48.858;21.906;2022-08-21T01:53:33;1.35;;;1.35;;
57573;SDS011;43409;48.858;21.906;2022-08-21T01:56:00;1.55;;;1.50;;
57573;SDS011;43409;48.858;21.906;2022-08-21T01:58:27;1.60;;;1.50;;
57573;SDS011;43409;48.858;21.906;2022-08-21T02:00:53;2.30;;;1.55;;
57573;SDS011;43409;48.858;21.906;2022-08-21T02:03:19;1.40;;;1.40;;
57573;SDS011;43409;48.858;21.906;2022-08-21T02:05:44;1.80;;;1.70;;
57573;SDS011;43409;48.858;21.906;2022-08-21T02:08:10;1.58;;;1.48;;
57573;SDS011;43409;48.858;21.906;2022-08-21T02:10:35;1.60;;;1.50;;
57573;SDS011;43409;48.858;21.906;2022-08-21T02:13:01;1.48;;;1.38;;
57573;SDS011;43409;48.858;21.906;2022-08-21T02:15:27;1.48;;;1.38;;
57573;SDS011;43409;48.858;21.906;2022-08-21T02:17:54;1.73;;;1.63;;
57573;SDS011;43409;48.858;21.906;2022-08-21T02:20:30;1.23;;;1.23;;
57573;SDS011;43409;48.858;21.906;2022-08-21T02:23:01;1.30;;;1.25;;
57573;SDS011;43409;48.858;21.906;2022-08-21T02:25:28;1.52;;;1.50;;
57573;SDS011;43409;48.858;21.906;2022-08-21T02:27:54;1.70;;;1.60;;
57573;SDS011;43409;48.858;21.906;2022-08-21T02:30:25;1.67;;;1.58;;
57573;SDS011;43409;48.858;21.906;2022-08-21T02:35:18;1.70;;;1.60;;
57573;SDS011;43409;48.858;21.906;2022-08-21T02:38:04;1.42;;;1.40;;
57573;SDS011;43409;48.858;21.906;2022-08-21T02:40:33;1.30;;;1.30;;
57573;SDS011;43409;48.858;21.906;2022-08-21T02:43:00;1.60;;;1.50;;
57573;SDS011;43409;48.858;21.906;2022-08-21T02:45:27;1.70;;;1.60;;
57573;SDS011;43409;48.858;21.906;2022-08-21T02:48:15;1.63;;;1.52;;
57573;SDS011;43409;48.858;21.906;2022-08-21T02:50:42;1.50;;;1.40;;
57573;SDS011;43409;48.858;21.906;2022-08-21T02:53:12;1.35;;;1.35;;
57573;SDS011;43409;48.858;21.906;2022-08-21T02:55:43;1.55;;;1.45;;
57573;SDS011;43409;48.858;21.906;2022-08-21T02:58:12;1.65;;;1.55;;
57573;SDS011;43409;48.858;21.906;2022-08-21T03:00:40;1.63;;;1.52;;
57573;SDS011;43409;48.858;21.906;2022-08-21T03:03:06;1.52;;;1.42;;
57573;SDS011;43409;48.858;21.906;2022-08-21T03:05:32;1.40;;;1.40;;
57573;SDS011;43409;48.858;21.906;2022-08-21T03:07:59;2.00;;;1.90;;
57573;SDS011;43409;48.858;21.906;2022-08-21T03:10:26;1.63;;;1.52;;
57573;SDS011;43409;48.858;21.906;2022-08-21T03:12:52;1.88;;;1.77;;
57573;SDS011;43409;48.858;21.906;2022-08-21T03:15:18;1.50;;;1.40;;
57573;SDS011;43409;48.858;21.906;2022-08-21T03:17:45;1.60;;;1.50;;
57573;SDS011;43409;48.858;21.906;2022-08-21T03:20:12;1.50;;;1.40;;
57573;SDS011;43409;48.858;21.906;2022-08-21T03:22:39;4.10;;;1.52;;
57573;SDS011;43409;48.858;21.906;2022-08-21T03:25:05;1.63;;;1.52;;
57573;SDS011;43409;48.858;21.906;2022-08-21T03:27:31;1.52;;;1.42;;
57573;SDS011;43409;48.858;21.906;2022-08-21T03:29:56;1.40;;;1.30;;
57573;SDS011;43409;48.858;21.906;2022-08-21T03:32:22;1.50;;;1.40;;
57573;SDS011;43409;48.858;21.906;2022-08-21T03:34:47;1.33;;;1.33;;
57573;SDS011;43409;48.858;21.906;2022-08-21T03:37:13;1.65;;;1.55;;
57573;SDS011;43409;48.858;21.906;2022-08-21T03:39:39;1.50;;;1.45;;
57573;SDS011;43409;48.858;21.906;2022-08-21T03:42:06;1.45;;;1.35;;
57573;SDS011;43409;48.858;21.906;2022-08-21T03:44:33;1.38;;;1.30;;
57573;SDS011;43409;48.858;21.906;2022-08-21T03:46:59;1.50;;;1.40;;
57573;SDS011;43409;48.858;21.906;2022-08-21T03:49:25;1.30;;;1.20;;
57573;SDS011;43409;48.858;21.906;2022-08-21T03:51:51;3.10;;;1.60;;
57573;SDS011;43409;48.858;21.906;2022-08-21T03:54:17;1.70;;;1.60;;
57573;SDS011;43409;48.858;21.906;2022-08-21T03:56:42;1.50;;;1.40;;
57573;SDS011;43409;48.858;21.906;2022-08-21T03:59:08;1.30;;;1.30;;
57573;SDS011;43409;48.858;21.906;2022-08-21T04:01:33;1.20;;;1.20;;
57573;SDS011;43409;48.858;21.906;2022-08-21T04:03:59;1.70;;;1.60;;
57573;SDS011;43409;48.858;21.906;2022-08-21T04:06:24;1.23;;;1.23;;
57573;SDS011;43409;48.858;21.906;2022-08-21T04:08:51;1.45;;;1.40;;
57573;SDS011;43409;48.858;21.906;2022-08-21T04:11:18;1.27;;;1.27;;
57573;SDS011;43409;48.858;21.906;2022-08-21T04:13:44;1.42;;;1.33;;
57573;SDS011;43409;48.858;21.906;2022-08-21T04:16:10;1.70;;;1.60;;
57573;SDS011;43409;48.858;21.906;2022-08-21T04:18:35;1.20;;;1.20;;
57573;SDS011;43409;48.858;21.906;2022-08-21T04:21:01;1.60;;;1.50;;
57573;SDS011;43409;48.858;21.906;2022-08-21T04:23:28;1.33;;;1.33;;
57573;SDS011;43409;48.858;21.906;2022-08-21T04:25:55;1.67;;;1.58;;
57573;SDS011;43409;48.858;21.906;2022-08-21T04:28:22;1.40;;;1.40;;
57573;SDS011;43409;48.858;21.906;2022-08-21T04:30:48;1.52;;;1.42;;
57573;SDS011;43409;48.858;21.906;2022-08-21T04:33:15;1.30;;;1.30;;
57573;SDS011;43409;48.858;21.906;2022-08-21T04:35:40;1.48;;;1.38;;
57573;SDS011;43409;48.858;21.906;2022-08-21T04:38:07;1.73;;;1.63;;
57573;SDS011;43409;48.858;21.906;2022-08-21T04:40:32;1.65;;;1.55;;
57573;SDS011;43409;48.858;21.906;2022-08-21T04:43:00;1.83;;;1.50;;
57573;SDS011;43409;48.858;21.906;2022-08-21T04:45:28;1.70;;;1.60;;
57573;SDS011;43409;48.858;21.906;2022-08-21T04:47:56;1.40;;;1.30;;
57573;SDS011;43409;48.858;21.906;2022-08-21T04:50:45;1.60;;;1.50;;
57573;SDS011;43409;48.858;21.906;2022-08-21T04:53:16;1.88;;;1.77;;
57573;SDS011;43409;48.858;21.906;2022-08-21T04:55:45;1.50;;;1.40;;
57573;SDS011;43409;48.858;21.906;2022-08-21T04:58:13;1.60;;;1.50;;
57573;SDS011;43409;48.858;21.906;2022-08-21T05:00:42;1.20;;;1.20;;
57573;SDS011;43409;48.858;21.906;2022-08-21T05:03:08;1.58;;;1.48;;
57573;SDS011;43409;48.858;21.906;2022-08-21T05:05:36;1.75;;;1.65;;
57573;SDS011;43409;48.858;21.906;2022-08-21T05:08:02;1.60;;;1.50;;
57573;SDS011;43409;48.858;21.906;2022-08-21T05:10:29;1.70;;;1.60;;
57573;SDS011;43409;48.858;21.906;2022-08-21T05:12:56;1.52;;;1.50;;
57573;SDS011;43409;48.858;21.906;2022-08-21T05:15:23;1.70;;;1.60;;
57573;SDS011;43409;48.858;21.906;2022-08-21T05:17:48;1.70;;;1.60;;
57573;SDS011;43409;48.858;21.906;2022-08-21T05:20:15;1.40;;;1.30;;
57573;SDS011;43409;48.858;21.906;2022-08-21T05:22:41;1.30;;;1.30;;
57573;SDS011;43409;48.858;21.906;2022-08-21T05:25:07;2.08;;;1.35;;
57573;SDS011;43409;48.858;21.906;2022-08-21T05:27:34;1.50;;;1.40;;
57573;SDS011;43409;48.858;21.906;2022-08-21T05:29:59;1.70;;;1.60;;
57573;SDS011;43409;48.858;21.906;2022-08-21T05:32:25;1.30;;;1.30;;
57573;SDS011;43409;48.858;21.906;2022-08-21T05:34:52;1.40;;;1.30;;
57573;SDS011;43409;48.858;21.906;2022-08-21T05:37:18;1.50;;;1.40;;
57573;SDS011;43409;48.858;21.906;2022-08-21T05:39:44;1.65;;;1.55;;
57573;SDS011;43409;48.858;21.906;2022-08-21T05:42:10;1.35;;;1.35;;
57573;SDS011;43409;48.858;21.906;2022-08-21T05:44:36;1.65;;;1.40;;
57573;SDS011;43409;48.858;21.906;2022-08-21T05:47:05;1.30;;;1.30;;
57573;SDS011;43409;48.858;21.906;2022-08-21T05:49:33;1.33;;;1.30;;
57573;SDS011;43409;48.858;21.906;2022-08-21T05:51:59;1.30;;;1.20;;
57573;SDS011;43409;48.858;21.906;2022-08-21T05:54:24;1.50;;;1.40;;
57573;SDS011;43409;48.858;21.906;2022-08-21T05:56:50;1.42;;;1.33;;
57573;SDS011;43409;48.858;21.906;2022-08-21T05:59:16;1.40;;;1.33;;
57573;SDS011;43409;48.858;21.906;2022-08-21T06:01:42;1.50;;;1.40;;
57573;SDS011;43409;48.858;21.906;2022-08-21T06:04:07;1.50;;;1.40;;
57573;SDS011;43409;48.858;21.906;2022-08-21T06:06:33;1.40;;;1.30;;
57573;SDS011;43409;48.858;21.906;2022-08-21T06:08:59;1.55;;;1.45;;
57573;SDS011;43409;48.858;21.906;2022-08-21T06:11:25;1.60;;;1.50;;
57573;SDS011;43409;48.858;21.906;2022-08-21T06:13:50;1.27;;;1.27;;
57573;SDS011;43409;48.858;21.906;2022-08-21T06:16:16;1.55;;;1.45;;
57573;SDS011;43409;48.858;21.906;2022-08-21T06:18:42;1.52;;;1.42;;
57573;SDS011;43409;48.858;21.906;2022-08-21T06:21:09;1.40;;;1.40;;
57573;SDS011;43409;48.858;21.906;2022-08-21T06:23:36;1.70;;;1.60;;
57573;SDS011;43409;48.858;21.906;2022-08-21T06:26:02;1.75;;;1.30;;
57573;SDS011;43409;48.858;21.906;2022-08-21T06:28:29;1.50;;;1.40;;
57573;SDS011;43409;48.858;21.906;2022-08-21T06:30:55;1.52;;;1.42;;
57573;SDS011;43409;48.858;21.906;2022-08-21T06:33:20;1.48;;;1.38;;
57573;SDS011;43409;48.858;21.906;2022-08-21T06:35:46;1.58;;;1.48;;
57573;SDS011;43409;48.858;21.906;2022-08-21T06:38:14;1.40;;;1.30;;
57573;SDS011;43409;48.858;21.906;2022-08-21T06:40:39;1.65;;;1.55;;
57573;SDS011;43409;48.858;21.906;2022-08-21T06:43:06;1.73;;;1.42;;
57573;SDS011;43409;48.858;21.906;2022-08-21T06:45:33;1.67;;;1.58;;
57573;SDS011;43409;48.858;21.906;2022-08-21T06:47:59;1.40;;;1.30;;
57573;SDS011;43409;48.858;21.906;2022-08-21T06:50:25;1.27;;;1.20;;
57573;SDS011;43409;48.858;21.906;2022-08-21T06:52:57;1.70;;;1.60;;
57573;SDS011;43409;48.858;21.906;2022-08-21T06:55:24;1.55;;;1.45;;
57573;SDS011;43409;48.858;21.906;2022-08-21T06:57:49;2.17;;;1.75;;
57573;SDS011;43409;48.858;21.906;2022-08-21T07:00:14;1.60;;;1.50;;
57573;SDS011;43409;48.858;21.906;2022-08-21T07:02:40;1.38;;;1.30;;
57573;SDS011;43409;48.858;21.906;2022-08-21T07:05:06;1.40;;;1.35;;
57573;SDS011;43409;48.858;21.906;2022-08-21T07:07:31;1.40;;;1.30;;
57573;SDS011;43409;48.858;21.906;2022-08-21T07:09:57;1.58;;;1.48;;
57573;SDS011;43409;48.858;21.906;2022-08-21T07:12:22;1.27;;;1.27;;
57573;SDS011;43409;48.858;21.906;2022-08-21T07:14:48;1.60;;;1.50;;
57573;SDS011;43409;48.858;21.906;2022-08-21T07:17:13;1.20;;;1.20;;
57573;SDS011;43409;48.858;21.906;2022-08-21T07:19:39;1.45;;;1.35;;
57573;SDS011;43409;48.858;21.906;2022-08-21T07:22:04;1.20;;;1.20;;
57573;SDS011;43409;48.858;21.906;2022-08-21T07:24:29;1.13;;;1.13;;
57573;SDS011;43409;48.858;21.906;2022-08-21T07:26:55;1.40;;;1.40;;
57573;SDS011;43409;48.858;21.906;2022-08-21T07:29:20;1.45;;;1.35;;
57573;SDS011;43409;48.858;21.906;2022-08-21T07:31:46;1.58;;;1.48;;
57573;SDS011;43409;48.858;21.906;2022-08-21T07:34:12;1.45;;;1.35;;
57573;SDS011;43409;48.858;21.906;2022-08-21T07:36:37;1.20;;;1.20;;
57573;SDS011;43409;48.858;21.906;2022-08-21T07:39:03;1.30;;;1.23;;
57573;SDS011;43409;48.858;21.906;2022-08-21T07:41:28;1.30;;;1.30;;
57573;SDS011;43409;48.858;21.906;2022-08-21T07:43:54;1.48;;;1.38;;
57573;SDS011;43409;48.858;21.906;2022-08-21T07:46:24;1.30;;;1.30;;
57573;SDS011;43409;48.858;21.906;2022-08-21T07:48:50;1.33;;;1.23;;
57573;SDS011;43409;48.858;21.906;2022-08-21T07:51:17;1.10;;;1.10;;
57573;SDS011;43409;48.858;21.906;2022-08-21T07:53:47;1.13;;;1.13;;
57573;SDS011;43409;48.858;21.906;2022-08-21T07:56:14;1.13;;;1.13;;
57573;SDS011;43409;48.858;21.906;2022-08-21T07:58:40;1.20;;;1.20;;
57573;SDS011;43409;48.858;21.906;2022-08-21T08:01:06;1.60;;;1.50;;
57573;SDS011;43409;48.858;21.906;2022-08-21T08:03:31;1.25;;;1.20;;
57573;SDS011;43409;48.858;21.906;2022-08-21T08:05:57;1.10;;;1.10;;
57573;SDS011;43409;48.858;21.906;2022-08-21T08:08:23;1.35;;;1.25;;
57573;SDS011;43409;48.858;21.906;2022-08-21T08:10:49;1.35;;;1.25;;
57573;SDS011;43409;48.858;21.906;2022-08-21T08:13:15;1.27;;;1.27;;
57573;SDS011;43409;48.858;21.906;2022-08-21T08:15:41;1.40;;;1.30;;
57573;SDS011;43409;48.858;21.906;2022-08-21T08:18:06;1.52;;;1.42;;
57573;SDS011;43409;48.858;21.906;2022-08-21T08:20:31;1.30;;;1.27;;
57573;SDS011;43409;48.858;21.906;2022-08-21T08:22:58;1.40;;;1.30;;
57573;SDS011;43409;48.858;21.906;2022-08-21T08:25:24;1.40;;;1.30;;
57573;SDS011;43409;48.858;21.906;2022-08-21T08:27:51;1.35;;;1.30;;
57573;SDS011;43409;48.858;21.906;2022-08-21T08:30:17;1.10;;;1.10;;
57573;SDS011;43409;48.858;21.906;2022-08-21T08:32:43;1.55;;;1.45;;
57573;SDS011;43409;48.858;21.906;2022-08-21T08:35:10;1.38;;;1.30;;
57573;SDS011;43409;48.858;21.906;2022-08-21T08:37:37;1.30;;;1.30;;
57573;SDS011;43409;48.858;21.906;2022-08-21T08:40:05;1.30;;;1.30;;
57573;SDS011;43409;48.858;21.906;2022-08-21T08:42:35;1.30;;;1.20;;
57573;SDS011;43409;48.858;21.906;2022-08-21T08:47:42;1.20;;;1.20;;
57573;SDS011;43409;48.858;21.906;2022-08-21T08:50:12;1.00;;;1.00;;
57573;SDS011;43409;48.858;21.906;2022-08-21T08:52:52;1.40;;;1.30;;
57573;SDS011;43409;48.858;21.906;2022-08-21T08:55:34;1.30;;;1.30;;
57573;SDS011;43409;48.858;21.906;2022-08-21T08:58:09;1.05;;;1.05;;
57573;SDS011;43409;48.858;21.906;2022-08-21T09:00:40;1.25;;;1.25;;
57573;SDS011;43409;48.858;21.906;2022-08-21T09:03:06;1.33;;;1.30;;
57573;SDS011;43409;48.858;21.906;2022-08-21T09:05:56;1.35;;;1.30;;
57573;SDS011;43409;48.858;21.906;2022-08-21T09:11:28;1.40;;;1.38;;
57573;SDS011;43409;48.858;21.906;2022-08-21T09:16:49;1.23;;;1.23;;
57573;SDS011;43409;48.858;21.906;2022-08-21T09:27:33;1.38;;;1.27;;
57573;SDS011;43409;48.858;21.906;2022-08-21T09:29:59;1.20;;;1.20;;
57573;SDS011;43409;48.858;21.906;2022-08-21T09:32:29;1.30;;;1.25;;
57573;SDS011;43409;48.858;21.906;2022-08-21T09:35:01;1.10;;;1.10;;
57573;SDS011;43409;48.858;21.906;2022-08-21T09:37:32;1.20;;;1.20;;
57573;SDS011;43409;48.858;21.906;2022-08-21T09:39:59;1.02;;;1.02;;
57573;SDS011;43409;48.858;21.906;2022-08-21T09:42:28;0.95;;;0.95;;
57573;SDS011;43409;48.858;21.906;2022-08-21T09:45:13;1.42;;;1.35;;
57573;SDS011;43409;48.858;21.906;2022-08-21T09:47:42;1.30;;;1.02;;
57573;SDS011;43409;48.858;21.906;2022-08-21T09:50:13;1.30;;;1.30;;
57573;SDS011;43409;48.858;21.906;2022-08-21T09:52:51;1.00;;;1.00;;
57573;SDS011;43409;48.858;21.906;2022-08-21T09:55:30;1.40;;;1.30;;
57573;SDS011;43409;48.858;21.906;2022-08-21T09:58:21;1.30;;;1.20;;
57573;SDS011;43409;48.858;21.906;2022-08-21T10:00:57;1.20;;;1.20;;
57573;SDS011;43409;48.858;21.906;2022-08-21T10:03:25;1.60;;;1.50;;
57573;SDS011;43409;48.858;21.906;2022-08-21T10:08:37;1.30;;;1.30;;
57573;SDS011;43409;48.858;21.906;2022-08-21T10:11:08;1.35;;;1.30;;
57573;SDS011;43409;48.858;21.906;2022-08-21T10:13:40;2.83;;;1.20;;
57573;SDS011;43409;48.858;21.906;2022-08-21T10:19:17;1.00;;;1.00;;
57573;SDS011;43409;48.858;21.906;2022-08-21T10:24:37;1.08;;;1.05;;
57573;SDS011;43409;48.858;21.906;2022-08-21T10:29:59;0.95;;;0.95;;
57573;SDS011;43409;48.858;21.906;2022-08-21T10:35:27;1.05;;;1.05;;
57573;SDS011;43409;48.858;21.906;2022-08-21T10:40:52;1.40;;;1.30;;
57573;SDS011;43409;48.858;21.906;2022-08-21T10:49:09;1.00;;;1.00;;
57573;SDS011;43409;48.858;21.906;2022-08-21T10:54:27;0.93;;;0.90;;
57573;SDS011;43409;48.858;21.906;2022-08-21T10:57:03;0.77;;;0.77;;
57573;SDS011;43409;48.858;21.906;2022-08-21T10:59:38;0.90;;;0.90;;
57573;SDS011;43409;48.858;21.906;2022-08-21T11:07:35;1.08;;;1.08;;
57573;SDS011;43409;48.858;21.906;2022-08-21T11:10:26;1.42;;;1.33;;
57573;SDS011;43409;48.858;21.906;2022-08-21T11:12:58;1.08;;;1.08;;
57573;SDS011;43409;48.858;21.906;2022-08-21T11:15:31;0.90;;;0.90;;
57573;SDS011;43409;48.858;21.906;2022-08-21T11:18:14;1.20;;;1.10;;
57573;SDS011;43409;48.858;21.906;2022-08-21T11:23:49;1.00;;;1.00;;
57573;SDS011;43409;48.858;21.906;2022-08-21T11:29:06;1.05;;;1.05;;
57573;SDS011;43409;48.858;21.906;2022-08-21T11:32:03;1.10;;;1.10;;
57573;SDS011;43409;48.858;21.906;2022-08-21T11:34:46;1.00;;;1.00;;
57573;SDS011;43409;48.858;21.906;2022-08-21T11:40:58;1.10;;;1.10;;
57573;SDS011;43409;48.858;21.906;2022-08-21T11:45:59;0.90;;;0.90;;
57573;SDS011;43409;48.858;21.906;2022-08-21T11:51:16;1.20;;;1.10;;
57573;SDS011;43409;48.858;21.906;2022-08-21T11:56:43;1.00;;;1.00;;
57573;SDS011;43409;48.858;21.906;2022-08-21T11:59:17;0.85;;;0.85;;
57573;SDS011;43409;48.858;21.906;2022-08-21T12:01:53;0.90;;;0.90;;
57573;SDS011;43409;48.858;21.906;2022-08-21T12:06:51;1.20;;;1.10;;
57573;SDS011;43409;48.858;21.906;2022-08-21T12:09:33;1.15;;;1.15;;
57573;SDS011;43409;48.858;21.906;2022-08-21T12:14:42;3.38;;;1.13;;
57573;SDS011;43409;48.858;21.906;2022-08-21T12:17:16;1.10;;;1.10;;
57573;SDS011;43409;48.858;21.906;2022-08-21T12:20:00;1.00;;;1.00;;
57573;SDS011;43409;48.858;21.906;2022-08-21T12:22:40;0.77;;;0.77;;
57573;SDS011;43409;48.858;21.906;2022-08-21T12:25:08;1.00;;;1.00;;
57573;SDS011;43409;48.858;21.906;2022-08-21T12:36:30;1.20;;;1.20;;
57573;SDS011;43409;48.858;21.906;2022-08-21T12:38:57;1.05;;;1.05;;
57573;SDS011;43409;48.858;21.906;2022-08-21T12:46:45;1.40;;;1.30;;
57573;SDS011;43409;48.858;21.906;2022-08-21T12:51:54;0.88;;;0.88;;
57573;SDS011;43409;48.858;21.906;2022-08-21T12:54:30;1.08;;;1.08;;
57573;SDS011;43409;48.858;21.906;2022-08-21T12:57:02;1.10;;;1.00;;
57573;SDS011;43409;48.858;21.906;2022-08-21T12:59:30;1.20;;;1.20;;
57573;SDS011;43409;48.858;21.906;2022-08-21T13:01:56;0.95;;;0.95;;
57573;SDS011;43409;48.858;21.906;2022-08-21T13:04:28;1.10;;;1.10;;
57573;SDS011;43409;48.858;21.906;2022-08-21T13:07:04;1.70;;;1.35;;
57573;SDS011;43409;48.858;21.906;2022-08-21T13:09:35;1.25;;;1.15;;
57573;SDS011;43409;48.858;21.906;2022-08-21T13:12:06;1.27;;;1.20;;
57573;SDS011;43409;48.858;21.906;2022-08-21T13:14:35;1.75;;;1.20;;
57573;SDS011;43409;48.858;21.906;2022-08-21T13:17:03;1.30;;;1.30;;
57573;SDS011;43409;48.858;21.906;2022-08-21T13:19:30;1.30;;;1.20;;
57573;SDS011;43409;48.858;21.906;2022-08-21T13:21:56;1.10;;;1.10;;
57573;SDS011;43409;48.858;21.906;2022-08-21T13:24:27;1.10;;;1.10;;
57573;SDS011;43409;48.858;21.906;2022-08-21T13:29:22;1.17;;;1.17;;
57573;SDS011;43409;48.858;21.906;2022-08-21T13:31:55;1.10;;;1.10;;
57573;SDS011;43409;48.858;21.906;2022-08-21T13:34:26;1.55;;;1.42;;
57573;SDS011;43409;48.858;21.906;2022-08-21T13:36:56;1.00;;;1.00;;
57573;SDS011;43409;48.858;21.906;2022-08-21T13:39:24;1.20;;;1.10;;
57573;SDS011;43409;48.858;21.906;2022-08-21T13:41:50;1.13;;;1.13;;
57573;SDS011;43409;48.858;21.906;2022-08-21T13:44:20;1.52;;;1.20;;
57573;SDS011;43409;48.858;21.906;2022-08-21T13:46:56;1.20;;;1.20;;
57573;SDS011;43409;48.858;21.906;2022-08-21T13:49:29;1.08;;;1.08;;
57573;SDS011;43409;48.858;21.906;2022-08-21T13:51:58;1.38;;;1.27;;
57573;SDS011;43409;48.858;21.906;2022-08-21T13:54:39;1.40;;;1.30;;
57573;SDS011;43409;48.858;21.906;2022-08-21T13:57:19;1.50;;;1.40;;
57573;SDS011;43409;48.858;21.906;2022-08-21T13:59:51;1.40;;;1.30;;
57573;SDS011;43409;48.858;21.906;2022-08-21T14:02:20;1.40;;;1.30;;
57573;SDS011;43409;48.858;21.906;2022-08-21T14:07:23;1.15;;;1.05;;
57573;SDS011;43409;48.858;21.906;2022-08-21T14:09:52;1.30;;;1.20;;
57573;SDS011;43409;48.858;21.906;2022-08-21T14:12:26;1.25;;;1.25;;
57573;SDS011;43409;48.858;21.906;2022-08-21T14:14:57;1.50;;;1.40;;
57573;SDS011;43409;48.858;21.906;2022-08-21T14:17:32;1.40;;;1.30;;
57573;SDS011;43409;48.858;21.906;2022-08-21T14:20:04;1.52;;;1.42;;
57573;SDS011;43409;48.858;21.906;2022-08-21T14:25:06;1.70;;;1.60;;
57573;SDS011;43409;48.858;21.906;2022-08-21T14:27:37;1.50;;;1.40;;
57573;SDS011;43409;48.858;21.906;2022-08-21T14:30:12;1.45;;;1.35;;
57573;SDS011;43409;48.858;21.906;2022-08-21T14:32:44;1.75;;;1.58;;
57573;SDS011;43409;48.858;21.906;2022-08-21T14:35:10;1.50;;;1.40;;
57573;SDS011;43409;48.858;21.906;2022-08-21T14:37:37;1.23;;;1.20;;
57573;SDS011;43409;48.858;21.906;2022-08-21T14:40:06;1.63;;;1.50;;
57573;SDS011;43409;48.858;21.906;2022-08-21T14:42:32;1.55;;;1.45;;
57573;SDS011;43409;48.858;21.906;2022-08-21T14:45:00;1.40;;;1.30;;
57573;SDS011;43409;48.858;21.906;2022-08-21T14:49:56;1.42;;;1.17;;
57573;SDS011;43409;48.858;21.906;2022-08-21T14:52:21;1.23;;;1.20;;
57573;SDS011;43409;48.858;21.906;2022-08-21T14:54:48;1.20;;;1.20;;
57573;SDS011;43409;48.858;21.906;2022-08-21T14:57:14;1.40;;;1.30;;
57573;SDS011;43409;48.858;21.906;2022-08-21T14:59:39;1.40;;;1.38;;
57573;SDS011;43409;48.858;21.906;2022-08-21T15:02:06;1.50;;;1.40;;
57573;SDS011;43409;48.858;21.906;2022-08-21T15:04:33;1.15;;;1.15;;
57573;SDS011;43409;48.858;21.906;2022-08-21T15:06:59;1.50;;;1.40;;
57573;SDS011;43409;48.858;21.906;2022-08-21T15:09:25;1.60;;;1.50;;
57573;SDS011;43409;48.858;21.906;2022-08-21T15:11:55;1.40;;;1.30;;
57573;SDS011;43409;48.858;21.906;2022-08-21T15:14:23;1.30;;;1.20;;
57573;SDS011;43409;48.858;21.906;2022-08-21T15:16:52;1.27;;;1.23;;
57573;SDS011;43409;48.858;21.906;2022-08-21T15:19:17;1.30;;;1.30;;
57573;SDS011;43409;48.858;21.906;2022-08-21T15:21:43;1.67;;;1.58;;
57573;SDS011;43409;48.858;21.906;2022-08-21T15:24:09;1.55;;;1.45;;
57573;SDS011;43409;48.858;21.906;2022-08-21T15:26:35;1.52;;;1.42;;
57573;SDS011;43409;48.858;21.906;2022-08-21T15:29:01;1.23;;;1.23;;
57573;SDS011;43409;48.858;21.906;2022-08-21T15:31:27;1.65;;;1.55;;
57573;SDS011;43409;48.858;21.906;2022-08-21T15:34:00;1.35;;;1.35;;
57573;SDS011;43409;48.858;21.906;2022-08-21T15:36:26;1.50;;;1.40;;
57573;SDS011;43409;48.858;21.906;2022-08-21T15:38:52;1.50;;;1.40;;
57573;SDS011;43409;48.858;21.906;2022-08-21T15:41:17;1.40;;;1.30;;
57573;SDS011;43409;48.858;21.906;2022-08-21T15:43:47;1.20;;;1.20;;
57573;SDS011;43409;48.858;21.906;2022-08-21T15:48:57;1.50;;;1.42;;
57573;SDS011;43409;48.858;21.906;2022-08-21T15:51:22;1.70;;;1.60;;
57573;SDS011;43409;48.858;21.906;2022-08-21T15:53:48;1.38;;;1.27;;
57573;SDS011;43409;48.858;21.906;2022-08-21T15:58:48;1.25;;;1.25;;
57573;SDS011;43409;48.858;21.906;2022-08-21T16:01:15;1.13;;;1.13;;
57573;SDS011;43409;48.858;21.906;2022-08-21T16:03:40;1.33;;;1.27;;
57573;SDS011;43409;48.858;21.906;2022-08-21T16:06:11;1.50;;;1.40;;
57573;SDS011;43409;48.858;21.906;2022-08-21T16:08:37;1.10;;;1.10;;
57573;SDS011;43409;48.858;21.906;2022-08-21T16:11:02;1.30;;;1.20;;
57573;SDS011;43409;48.858;21.906;2022-08-21T16:13:28;1.70;;;1.60;;
57573;SDS011;43409;48.858;21.906;2022-08-21T16:16:01;1.27;;;1.27;;
57573;SDS011;43409;48.858;21.906;2022-08-21T16:18:27;1.67;;;1.58;;
57573;SDS011;43409;48.858;21.906;2022-08-21T16:20:52;1.23;;;1.23;;
57573;SDS011;43409;48.858;21.906;2022-08-21T16:23:18;1.45;;;1.35;;
57573;SDS011;43409;48.858;21.906;2022-08-21T16:25:43;1.45;;;1.35;;